Página principal
METAR-TAF:

METAR-TAF

Aeroportos :

Salamanca, Espanha

latitude: 40-57N, longitude: 005-30W, altura: 793 m

Observação actual do tempo

O boletim foi feito há 19 minutos, às 11:00 UTC
Vento 6 kt de es-nordeste, variando entre norte e es-sudeste
Temperatura 25°C
Humidade 44%
Pressão 1023 hPa
Visibilidade 10 km ou mais
sem nuvens abaixo de 1500 metros e sem cumulonimbus

METAR: LESA 191100Z 06006KT 350V110 CAVOK 25/12 Q1023

Hora: 13:19 (11:19 UTC)

Previsão

O boletim foi feito há 6 horas e 19 minutos, às 05:00 UTC
Previsão válida de 19 às 06 UTC a 20 às 06 UTC
Vento 8 kt de es-nordeste
Visibilidade 10 km ou mais
sem nuvens abaixo de 1500 metros e sem cumulonimbus

TAF: LESA 190500Z 1906/2006 06008KT CAVOK TX30/1915Z TN10/1906Z

Observações e previsões do tempo de mais de 4000 aeroportos (mensagens METAR e TAF).

As estações disponíveis são os pontos amarelos e vermelhos sobre o mapa.

Mova o rato sobre o mapa para ver o nome da estação.

Depois clique no ponto para visualizar as observações e previsões meteorológicas.

Para alterar o mapa : clique nos botões verdes com uma cruz preta para aumentar o zoom; no botão verde com uma pitada de zoom; ou nas setas verdes para mapas adjacentes.


METAR-TAF: